Time,TemperatureF,DewpointF,PressureIn,WindDirection,WindDirectionDegrees,WindSpeedMPH,WindSpeedGustMPH,Humidity,HourlyPrecipIn,Conditions,Clouds,dailyrainin,SoftwareType,DateUTC
2013-07-03 07:00:00,72.5,71.6,30.18,North,0,4.0,10.0,97,0.02,,---,0.10,VWS V14.01,2013-07-03 11:00:00,
2013-07-03 09:00:00,72.8,71.9,30.21,North,360,6.0,6.0,97,0.03,,---,0.11,VWS V14.01,2013-07-03 13:00:00,
2013-07-03 09:02:00,72.9,72.0,30.21,North,360,3.0,6.0,97,0.03,,---,0.11,VWS V14.01,2013-07-03 13:02:00,
2013-07-03 09:07:00,73.0,72.1,30.21,North,360,6.0,9.0,97,0.00,,---,0.11,VWS V14.01,2013-07-03 13:07:00,
2013-07-03 09:12:00,73.0,72.1,30.21,North,360,3.0,9.0,97,0.00,,---,0.11,VWS V14.01,2013-07-03 13:12:00,
2013-07-03 09:17:00,73.1,71.9,30.21,North,360,5.0,9.0,96,0.00,,---,0.11,VWS V14.01,2013-07-03 13:17:00,
2013-07-03 09:22:00,73.0,71.8,30.21,North,360,7.0,10.0,96,0.00,,---,0.11,VWS V14.01,2013-07-03 13:22:00,
2013-07-03 09:25:00,73.1,71.9,30.21,North,360,8.0,10.0,96,0.00,,---,0.11,VWS V14.01,2013-07-03 13:25:00,
2013-07-03 09:26:00,73.1,71.9,30.21,North,360,9.0,10.0,96,0.00,,---,0.11,VWS V14.01,2013-07-03 13:26:00,
2013-07-03 09:31:00,73.1,71.9,30.21,North,360,6.0,10.0,96,0.00,,---,0.11,VWS V14.01,2013-07-03 13:31:00,
2013-07-03 09:36:00,73.3,72.1,30.21,North,360,5.0,10.0,96,0.00,,---,0.11,VWS V14.01,2013-07-03 13:36:00,
2013-07-03 09:37:00,73.3,72.1,30.22,North,360,5.0,10.0,96,0.00,,---,0.11,VWS V14.01,2013-07-03 13:37:00,
2013-07-03 09:42:00,73.3,71.8,30.21,North,360,4.0,10.0,95,0.00,,---,0.11,VWS V14.01,2013-07-03 13:42:00,
2013-07-03 09:47:00,73.4,71.9,30.22,North,360,5.0,10.0,95,0.00,,---,0.11,VWS V14.01,2013-07-03 13:47:00,
2013-07-03 09:52:00,73.5,72.0,30.22,North,360,2.0,10.0,95,0.00,,---,0.11,VWS V14.01,2013-07-03 13:52:00,
2013-07-03 09:57:00,73.6,72.4,30.21,North,360,6.0,10.0,96,0.01,,---,0.12,VWS V14.01,2013-07-03 13:57:00,
2013-07-03 10:02:00,73.6,72.1,30.21,North,360,9.0,12.0,95,0.01,,---,0.12,VWS V14.01,2013-07-03 14:02:00,
2013-07-03 10:06:00,73.6,71.8,30.21,North,360,5.0,11.0,94,0.01,,---,0.12,VWS V14.01,2013-07-03 14:06:00,
2013-07-03 10:09:00,73.7,71.9,30.21,North,360,8.0,11.0,94,0.01,,---,0.12,VWS V14.01,2013-07-03 14:09:00,
2013-07-03 10:14:00,74.0,72.2,30.21,North,360,3.0,11.0,94,0.01,,---,0.12,VWS V14.01,2013-07-03 14:14:00,
2013-07-03 10:17:00,74.1,71.9,30.21,North,360,4.0,11.0,93,0.01,,---,0.12,VWS V14.01,2013-07-03 14:17:00,
2013-07-03 10:23:00,74.3,72.2,30.20,North,360,4.0,11.0,93,0.01,,---,0.12,VWS V14.01,2013-07-03 14:23:00,
2013-07-03 10:28:00,74.4,72.2,30.20,North,360,7.0,11.0,93,0.01,,---,0.12,VWS V14.01,2013-07-03 14:28:00,
2013-07-03 10:31:00,74.5,72.0,30.20,North,360,2.0,11.0,92,0.01,,---,0.12,VWS V14.01,2013-07-03 14:31:00,
2013-07-03 10:36:00,74.8,72.3,30.21,North,360,4.0,11.0,92,0.01,,---,0.12,VWS V14.01,2013-07-03 14:36:00,
2013-07-03 10:39:00,74.9,72.4,30.21,North,360,5.0,11.0,92,0.01,,---,0.12,VWS V14.01,2013-07-03 14:39:00,
2013-07-03 10:41:00,74.9,72.1,30.21,North,360,7.0,11.0,91,0.01,,---,0.12,VWS V14.01,2013-07-03 14:41:00,
2013-07-03 10:46:00,75.1,72.3,30.22,North,360,10.0,12.0,91,0.01,,---,0.12,VWS V14.01,2013-07-03 14:46:00,
2013-07-03 10:51:00,75.1,72.0,30.22,North,360,7.0,12.0,90,0.01,,---,0.12,VWS V14.01,2013-07-03 14:51:00,
2013-07-03 10:52:00,75.1,72.0,30.22,North,360,4.0,12.0,90,0.01,,---,0.12,VWS V14.01,2013-07-03 14:52:00,
2013-07-03 10:57:00,75.2,72.4,30.22,North,360,9.0,12.0,91,0.02,,---,0.13,VWS V14.01,2013-07-03 14:57:00,
2013-07-03 10:58:00,75.2,72.4,30.22,North,360,6.0,12.0,91,0.02,,---,0.13,VWS V14.01,2013-07-03 14:58:00,
2013-07-03 11:03:00,75.3,72.5,30.22,North,360,7.0,8.0,91,0.01,,---,0.13,VWS V14.01,2013-07-03 15:03:00,
2013-07-03 11:08:00,75.5,72.4,30.22,North,360,3.0,11.0,90,0.01,,---,0.13,VWS V14.01,2013-07-03 15:08:00,
2013-07-03 11:14:00,75.8,73.0,30.22,North,360,6.0,11.0,91,0.01,,---,0.13,VWS V14.01,2013-07-03 15:14:00,
2013-07-03 11:16:00,75.9,72.8,30.22,North,360,3.0,11.0,90,0.01,,---,0.13,VWS V14.01,2013-07-03 15:16:00,
2013-07-03 11:21:00,75.8,72.7,30.22,North,360,3.0,11.0,90,0.01,,---,0.13,VWS V14.01,2013-07-03 15:21:00,
2013-07-03 11:26:00,75.9,72.8,30.22,North,360,6.0,11.0,90,0.01,,---,0.13,VWS V14.01,2013-07-03 15:26:00,
2013-07-03 11:28:00,76.0,72.9,30.22,North,360,8.0,11.0,90,0.01,,---,0.13,VWS V14.01,2013-07-03 15:28:00,
2013-07-03 11:33:00,76.0,72.5,30.22,North,360,6.0,13.0,89,0.01,,---,0.13,VWS V14.01,2013-07-03 15:33:00,
2013-07-03 11:38:00,76.2,72.7,30.22,North,360,8.0,13.0,89,0.01,,---,0.13,VWS V14.01,2013-07-03 15:38:00,
2013-07-03 11:41:00,76.5,73.0,30.22,North,360,7.0,13.0,89,0.01,,---,0.13,VWS V14.01,2013-07-03 15:41:00,
2013-07-03 11:46:00,76.9,73.1,30.22,North,360,6.0,13.0,88,0.01,,---,0.13,VWS V14.01,2013-07-03 15:46:00,
2013-07-03 11:51:00,76.9,72.7,30.22,North,360,7.0,13.0,87,0.01,,---,0.13,VWS V14.01,2013-07-03 15:51:00,
2013-07-03 11:52:00,76.9,72.7,30.21,North,360,4.0,13.0,87,0.01,,---,0.13,VWS V14.01,2013-07-03 15:52:00,
2013-07-03 11:53:00,76.8,72.6,30.21,North,360,6.0,13.0,87,0.01,,---,0.13,VWS V14.01,2013-07-03 15:53:00,
2013-07-03 11:58:00,76.7,72.5,30.21,North,360,4.0,13.0,87,0.01,,---,0.13,VWS V14.01,2013-07-03 15:58:00,
2013-07-03 12:03:00,76.7,72.9,30.21,North,360,6.0,6.0,88,0.00,,---,0.13,VWS V14.01,2013-07-03 16:03:00,
2013-07-03 12:08:00,76.8,73.0,30.21,North,360,2.0,7.0,88,0.00,,---,0.13,VWS V14.01,2013-07-03 16:08:00,
2013-07-03 12:13:00,76.6,73.1,30.21,North,360,2.0,10.0,89,0.00,,---,0.13,VWS V14.01,2013-07-03 16:13:00,
2013-07-03 12:18:00,76.7,72.9,30.21,North,360,4.0,10.0,88,0.01,,---,0.14,VWS V14.01,2013-07-03 16:18:00,
2013-07-03 12:23:00,76.8,73.0,30.20,North,360,2.0,10.0,88,0.01,,---,0.14,VWS V14.01,2013-07-03 16:23:00,
2013-07-03 12:28:00,77.1,73.6,30.21,North,360,5.0,10.0,89,0.01,,---,0.14,VWS V14.01,2013-07-03 16:28:00,
2013-07-03 12:33:00,77.9,74.1,30.20,North,360,7.0,10.0,88,0.01,,---,0.14,VWS V14.01,2013-07-03 16:33:00,
2013-07-03 12:38:00,77.8,73.6,30.20,North,360,2.0,10.0,87,0.01,,---,0.14,VWS V14.01,2013-07-03 16:38:00,
2013-07-03 12:44:00,77.5,73.0,30.20,North,360,8.0,10.0,86,0.01,,---,0.14,VWS V14.01,2013-07-03 16:44:00,
2013-07-03 12:49:00,77.1,72.9,30.20,North,360,1.0,10.0,87,0.01,,---,0.14,VWS V14.01,2013-07-03 16:49:00,
2013-07-03 12:54:00,77.1,73.3,30.20,North,360,2.0,10.0,88,0.01,,---,0.14,VWS V14.01,2013-07-03 16:54:00,
2013-07-03 12:59:00,77.2,73.7,30.19,North,360,2.0,10.0,89,0.01,,---,0.14,VWS V14.01,2013-07-03 16:59:00,
2013-07-03 13:04:00,76.7,73.6,30.19,North,360,1.0,2.0,90,0.01,,---,0.14,VWS V14.01,2013-07-03 17:04:00,
2013-07-03 13:09:00,76.4,73.6,30.20,North,360,2.0,2.0,91,0.01,,---,0.14,VWS V14.01,2013-07-03 17:09:00,
2013-07-03 13:14:00,75.4,72.6,30.20,North,360,11.0,19.0,91,0.01,,---,0.14,VWS V14.01,2013-07-03 17:14:00,
2013-07-03 13:19:00,72.9,69.8,30.20,North,360,7.0,20.0,90,0.02,,---,0.15,VWS V14.01,2013-07-03 17:19:00,
2013-07-03 13:24:00,71.9,69.4,30.20,North,360,0.0,20.0,92,0.02,,---,0.15,VWS V14.01,2013-07-03 17:24:00,
2013-07-03 13:29:00,72.1,70.0,30.20,North,360,0.0,20.0,93,0.02,,---,0.15,VWS V14.01,2013-07-03 17:29:00,
2013-07-03 13:34:00,72.6,70.5,30.20,North,360,4.0,20.0,93,0.02,,---,0.15,VWS V14.01,2013-07-03 17:34:00,
2013-07-03 13:39:00,73.0,70.9,30.20,North,360,2.0,20.0,93,0.02,,---,0.15,VWS V14.01,2013-07-03 17:39:00,
2013-07-03 13:44:00,73.6,71.1,30.20,North,360,1.0,20.0,92,0.02,,---,0.15,VWS V14.01,2013-07-03 17:44:00,
2013-07-03 13:50:00,74.0,71.5,30.20,North,360,2.0,20.0,92,0.02,,---,0.15,VWS V14.01,2013-07-03 17:50:00,
2013-07-03 13:55:00,74.4,71.9,30.20,North,360,0.0,20.0,92,0.02,,---,0.15,VWS V14.01,2013-07-03 17:55:00,
2013-07-03 14:00:00,74.6,71.8,30.20,North,360,0.0,20.0,91,0.02,,---,0.15,VWS V14.01,2013-07-03 18:00:00,
2013-07-03 14:05:00,74.6,71.8,30.20,North,360,0.0,1.0,91,0.01,,---,0.15,VWS V14.01,2013-07-03 18:05:00,
2013-07-03 14:10:00,74.7,72.2,30.20,North,360,0.0,2.0,92,0.01,,---,0.15,VWS V14.01,2013-07-03 18:10:00,
2013-07-03 14:15:00,75.0,72.5,30.20,North,360,0.0,2.0,92,0.01,,---,0.15,VWS V14.01,2013-07-03 18:15:00,
2013-07-03 14:20:00,75.3,72.8,30.19,North,360,2.0,2.0,92,0.02,,---,0.16,VWS V14.01,2013-07-03 18:20:00,
2013-07-03 14:25:00,75.5,73.0,30.19,North,360,0.0,2.0,92,0.02,,---,0.16,VWS V14.01,2013-07-03 18:25:00,
2013-07-03 14:30:00,75.6,72.8,30.19,North,360,0.0,2.0,91,0.02,,---,0.16,VWS V14.01,2013-07-03 18:30:00,
2013-07-03 14:35:00,75.9,73.4,30.20,North,360,1.0,2.0,92,0.02,,---,0.16,VWS V14.01,2013-07-03 18:35:00,
2013-07-03 14:40:00,76.2,73.4,30.20,North,360,2.0,3.0,91,0.02,,---,0.16,VWS V14.01,2013-07-03 18:40:00,
2013-07-03 14:45:00,76.4,73.6,30.20,North,360,2.0,3.0,91,0.02,,---,0.16,VWS V14.01,2013-07-03 18:45:00,
2013-07-03 14:50:00,76.6,73.8,30.19,North,360,0.0,3.0,91,0.02,,---,0.16,VWS V14.01,2013-07-03 18:50:00,
2013-07-03 14:55:00,76.6,73.8,30.19,North,360,2.0,4.0,91,0.02,,---,0.16,VWS V14.01,2013-07-03 18:55:00,
2013-07-03 15:01:00,76.7,73.9,30.19,North,360,9.0,10.0,91,0.02,,---,0.16,VWS V14.01,2013-07-03 19:01:00,
2013-07-03 15:06:00,77.1,74.3,30.19,North,360,9.0,12.0,91,0.01,,---,0.16,VWS V14.01,2013-07-03 19:06:00,
2013-07-03 15:11:00,77.5,74.3,30.18,North,360,4.0,12.0,90,0.01,,---,0.16,VWS V14.01,2013-07-03 19:11:00,
2013-07-03 15:16:00,77.8,73.3,30.18,North,360,13.0,16.0,86,0.02,,---,0.17,VWS V14.01,2013-07-03 19:16:00,
2013-07-03 15:21:00,78.3,74.1,30.18,North,360,5.0,16.0,87,0.02,,---,0.17,VWS V14.01,2013-07-03 19:21:00,
2013-07-03 15:26:00,78.5,73.6,30.18,North,360,14.0,18.0,85,0.02,,---,0.17,VWS V14.01,2013-07-03 19:26:00,
2013-07-03 15:31:00,77.9,73.7,30.18,North,360,4.0,19.0,87,0.02,,---,0.17,VWS V14.01,2013-07-03 19:31:00,
2013-07-03 15:37:00,77.6,73.8,30.17,North,360,7.0,19.0,88,0.02,,---,0.17,VWS V14.01,2013-07-03 19:37:00,
2013-07-03 15:42:00,77.5,73.3,30.18,North,360,13.0,19.0,87,0.02,,---,0.17,VWS V14.01,2013-07-03 19:42:00,
2013-07-03 15:47:00,77.6,73.4,30.17,North,360,4.0,19.0,87,0.02,,---,0.17,VWS V14.01,2013-07-03 19:47:00,
2013-07-03 15:52:00,78.0,73.5,30.18,North,360,10.0,19.0,86,0.02,,---,0.17,VWS V14.01,2013-07-03 19:52:00,
2013-07-03 15:57:00,78.3,73.1,30.17,North,360,12.0,19.0,84,0.02,,---,0.17,VWS V14.01,2013-07-03 19:57:00,
2013-07-03 16:02:00,78.4,72.1,30.18,North,360,10.0,19.0,81,0.02,,---,0.17,VWS V14.01,2013-07-03 20:02:00,
2013-07-03 16:07:00,78.8,72.1,30.18,North,360,10.0,13.0,80,0.01,,---,0.17,VWS V14.01,2013-07-03 20:07:00,
2013-07-03 16:12:00,79.0,71.9,30.17,North,360,11.0,13.0,79,0.01,,---,0.17,VWS V14.01,2013-07-03 20:12:00,
2013-07-03 16:17:00,79.0,72.3,30.18,North,360,7.0,15.0,80,0.01,,---,0.17,VWS V14.01,2013-07-03 20:17:00,
2013-07-03 16:22:00,78.8,72.1,30.17,North,360,11.0,15.0,80,0.02,,---,0.18,VWS V14.01,2013-07-03 20:22:00,
2013-07-03 16:27:00,78.8,72.5,30.17,North,360,9.0,15.0,81,0.02,,---,0.18,VWS V14.01,2013-07-03 20:27:00,
2013-07-03 16:33:00,79.1,72.8,30.17,North,360,5.0,15.0,81,0.02,,---,0.18,VWS V14.01,2013-07-03 20:33:00,
2013-07-03 16:38:00,79.2,73.2,30.17,North,360,7.0,15.0,82,0.02,,---,0.18,VWS V14.01,2013-07-03 20:38:00,
2013-07-03 16:43:00,79.0,73.0,30.18,North,360,6.0,15.0,82,0.02,,---,0.18,VWS V14.01,2013-07-03 20:43:00,
2013-07-03 16:48:00,79.1,73.5,30.17,North,360,4.0,15.0,83,0.02,,---,0.18,VWS V14.01,2013-07-03 20:48:00,
2013-07-03 16:53:00,79.1,73.5,30.17,North,360,3.0,15.0,83,0.02,,---,0.18,VWS V14.01,2013-07-03 20:53:00,
2013-07-03 16:58:00,79.1,73.1,30.17,North,360,12.0,16.0,82,0.02,,---,0.18,VWS V14.01,2013-07-03 20:58:00,
2013-07-03 17:03:00,79.0,73.0,30.17,North,360,8.0,8.0,82,0.01,,---,0.18,VWS V14.01,2013-07-03 21:03:00,
2013-07-03 17:08:00,78.9,72.9,30.17,North,360,10.0,13.0,82,0.01,,---,0.18,VWS V14.01,2013-07-03 21:08:00,
2013-07-03 17:14:00,78.9,73.3,30.16,North,360,5.0,13.0,83,0.01,,---,0.18,VWS V14.01,2013-07-03 21:14:00,
2013-07-03 17:19:00,79.1,73.5,30.16,North,360,3.0,13.0,83,0.01,,---,0.18,VWS V14.01,2013-07-03 21:19:00,
2013-07-03 17:24:00,79.0,73.0,30.16,North,360,8.0,17.0,82,0.01,,---,0.18,VWS V14.01,2013-07-03 21:24:00,
2013-07-03 17:29:00,79.0,73.0,30.16,North,360,11.0,17.0,82,0.02,,---,0.19,VWS V14.01,2013-07-03 21:29:00,
2013-07-03 17:34:00,79.0,73.0,30.16,North,360,8.0,17.0,82,0.02,,---,0.19,VWS V14.01,2013-07-03 21:34:00,
2013-07-03 17:39:00,78.9,73.3,30.16,North,360,5.0,17.0,83,0.02,,---,0.19,VWS V14.01,2013-07-03 21:39:00,
2013-07-03 17:44:00,78.5,73.3,30.16,North,360,11.0,17.0,84,0.02,,---,0.19,VWS V14.01,2013-07-03 21:44:00,
2013-07-03 17:49:00,78.0,73.1,30.17,North,360,6.0,17.0,85,0.02,,---,0.19,VWS V14.01,2013-07-03 21:49:00,
2013-07-03 17:54:00,77.4,73.2,30.16,North,360,7.0,17.0,87,0.02,,---,0.19,VWS V14.01,2013-07-03 21:54:00,
2013-07-03 17:59:00,76.6,73.1,30.17,North,360,12.0,17.0,89,0.02,,---,0.19,VWS V14.01,2013-07-03 21:59:00,
2013-07-03 18:04:00,75.4,72.6,30.17,North,360,9.0,12.0,91,0.01,,---,0.19,VWS V14.01,2013-07-03 22:04:00,
2013-07-03 18:09:00,74.6,71.8,30.17,North,360,6.0,12.0,91,0.01,,---,0.19,VWS V14.01,2013-07-03 22:09:00,
2013-07-03 18:14:00,74.4,71.9,30.17,North,360,8.0,12.0,92,0.01,,---,0.19,VWS V14.01,2013-07-03 22:14:00,
2013-07-03 18:19:00,74.3,72.2,30.17,North,360,3.0,12.0,93,0.01,,---,0.19,VWS V14.01,2013-07-03 22:19:00,
2013-07-03 18:24:00,74.2,72.1,30.17,North,360,6.0,12.0,93,0.01,,---,0.19,VWS V14.01,2013-07-03 22:24:00,
2013-07-03 18:29:00,74.2,72.4,30.17,North,360,4.0,12.0,94,0.01,,---,0.19,VWS V14.01,2013-07-03 22:29:00,
2013-07-03 18:34:00,74.4,72.6,30.17,North,360,2.0,12.0,94,0.01,,---,0.19,VWS V14.01,2013-07-03 22:34:00,
2013-07-03 18:40:00,74.5,72.3,30.17,North,360,3.0,12.0,93,0.01,,---,0.19,VWS V14.01,2013-07-03 22:40:00,
2013-07-03 18:45:00,74.6,72.4,30.17,North,360,1.0,12.0,93,0.02,,---,0.20,VWS V14.01,2013-07-03 22:45:00,
2013-07-03 18:50:00,74.6,72.4,30.17,North,360,3.0,12.0,93,0.02,,---,0.20,VWS V14.01,2013-07-03 22:50:00,
2013-07-03 18:55:00,74.7,72.6,30.17,North,360,4.0,12.0,93,0.02,,---,0.20,VWS V14.01,2013-07-03 22:55:00,
2013-07-03 19:00:00,74.8,72.6,30.17,North,360,2.0,12.0,93,0.02,,---,0.20,VWS V14.01,2013-07-03 23:00:00,
2013-07-03 19:05:00,74.8,72.6,30.18,North,360,4.0,5.0,93,0.01,,---,0.20,VWS V14.01,2013-07-03 23:05:00,
2013-07-03 19:10:00,74.8,72.6,30.18,North,360,5.0,5.0,93,0.01,,---,0.20,VWS V14.01,2013-07-03 23:10:00,
2013-07-03 19:15:00,74.6,72.4,30.18,North,360,3.0,6.0,93,0.01,,---,0.20,VWS V14.01,2013-07-03 23:15:00,
2013-07-03 19:20:00,74.6,72.4,30.18,North,360,4.0,6.0,93,0.01,,---,0.20,VWS V14.01,2013-07-03 23:20:00,
2013-07-03 19:25:00,74.6,72.4,30.18,North,360,2.0,7.0,93,0.01,,---,0.20,VWS V14.01,2013-07-03 23:25:00,
2013-07-03 19:31:00,74.7,72.9,30.19,North,360,5.0,7.0,94,0.01,,---,0.20,VWS V14.01,2013-07-03 23:31:00,
2013-07-03 19:36:00,74.6,72.8,30.18,North,360,4.0,7.0,94,0.01,,---,0.20,VWS V14.01,2013-07-03 23:36:00,
2013-07-03 19:41:00,74.6,72.8,30.18,North,360,4.0,7.0,94,0.01,,---,0.20,VWS V14.01,2013-07-03 23:41:00,
2013-07-03 19:47:00,74.6,72.8,30.18,North,360,5.0,8.0,94,0.01,,---,0.20,VWS V14.01,2013-07-03 23:47:00,
2013-07-03 19:52:00,74.6,72.8,30.19,North,360,5.0,9.0,94,0.02,,---,0.21,VWS V14.01,2013-07-03 23:52:00,
2013-07-03 19:57:00,74.6,72.8,30.19,North,360,5.0,9.0,94,0.02,,---,0.21,VWS V14.01,2013-07-03 23:57:00,
2013-07-03 20:02:00,74.6,72.8,30.19,North,360,4.0,9.0,94,0.02,,---,0.21,VWS V14.01,2013-07-04 00:02:00,
2013-07-03 20:07:00,74.6,72.8,30.19,North,360,5.0,7.0,94,0.01,,---,0.21,VWS V14.01,2013-07-04 00:07:00,
2013-07-03 20:12:00,74.6,72.8,30.19,North,360,4.0,7.0,94,0.01,,---,0.21,VWS V14.01,2013-07-04 00:12:00,
2013-07-03 20:17:00,74.6,72.8,30.19,North,360,6.0,8.0,94,0.01,,---,0.21,VWS V14.01,2013-07-04 00:17:00,
2013-07-03 20:23:00,74.5,73.0,30.19,North,360,3.0,8.0,95,0.01,,---,0.21,VWS V14.01,2013-07-04 00:23:00,
2013-07-03 20:28:00,74.4,72.9,30.19,North,360,6.0,9.0,95,0.01,,---,0.21,VWS V14.01,2013-07-04 00:28:00,
2013-07-03 20:33:00,74.3,72.8,30.20,North,360,5.0,10.0,95,0.01,,---,0.21,VWS V14.01,2013-07-04 00:33:00,
2013-07-03 20:38:00,74.3,72.8,30.20,North,360,3.0,10.0,95,0.01,,---,0.21,VWS V14.01,2013-07-04 00:38:00,
2013-07-03 20:43:00,74.3,72.8,30.20,North,360,5.0,10.0,95,0.01,,---,0.21,VWS V14.01,2013-07-04 00:43:00,
2013-07-03 20:48:00,74.2,72.7,30.19,North,360,5.0,10.0,95,0.01,,---,0.21,VWS V14.01,2013-07-04 00:48:00,
2013-07-03 20:53:00,74.2,72.7,30.20,North,360,5.0,10.0,95,0.01,,---,0.21,VWS V14.01,2013-07-04 00:53:00,
2013-07-03 20:58:00,74.1,72.6,30.20,North,360,3.0,10.0,95,0.01,,---,0.21,VWS V14.01,2013-07-04 00:58:00,
2013-07-03 21:03:00,74.0,72.5,30.20,North,360,5.0,5.0,95,0.00,,---,0.21,VWS V14.01,2013-07-04 01:03:00,
2013-07-03 21:08:00,73.9,72.4,30.20,North,360,4.0,6.0,95,0.00,,---,0.21,VWS V14.01,2013-07-04 01:08:00,
2013-07-03 21:13:00,73.9,72.4,30.19,North,360,6.0,7.0,95,0.00,,---,0.21,VWS V14.01,2013-07-04 01:13:00,
2013-07-03 21:19:00,73.8,72.3,30.20,North,360,5.0,7.0,95,0.00,,---,0.21,VWS V14.01,2013-07-04 01:19:00,
2013-07-03 21:24:00,73.8,72.3,30.20,North,360,5.0,7.0,95,0.01,,---,0.22,VWS V14.01,2013-07-04 01:24:00,
2013-07-03 21:29:00,73.7,72.2,30.20,North,360,4.0,7.0,95,0.01,,---,0.22,VWS V14.01,2013-07-04 01:29:00,
2013-07-03 21:34:00,73.6,72.1,30.20,North,360,4.0,9.0,95,0.01,,---,0.22,VWS V14.01,2013-07-04 01:34:00,
2013-07-03 21:39:00,73.6,72.4,30.20,North,360,7.0,9.0,96,0.01,,---,0.22,VWS V14.01,2013-07-04 01:39:00,
2013-07-03 21:44:00,73.5,72.0,30.20,North,360,4.0,9.0,95,0.01,,---,0.22,VWS V14.01,2013-07-04 01:44:00,
2013-07-03 21:49:00,73.5,72.3,30.21,North,360,5.0,9.0,96,0.01,,---,0.22,VWS V14.01,2013-07-04 01:49:00,
2013-07-03 21:54:00,73.5,72.3,30.21,North,360,9.0,9.0,96,0.01,,---,0.22,VWS V14.01,2013-07-04 01:54:00,
2013-07-03 21:59:00,73.5,72.3,30.21,North,360,7.0,9.0,96,0.01,,---,0.22,VWS V14.01,2013-07-04 01:59:00,
2013-07-03 22:04:00,73.5,72.3,30.21,North,360,4.0,9.0,96,0.01,,---,0.22,VWS V14.01,2013-07-04 02:04:00,
2013-07-03 22:09:00,73.6,72.4,30.21,North,360,6.0,9.0,96,0.01,,---,0.22,VWS V14.01,2013-07-04 02:09:00,
2013-07-03 22:14:00,73.6,72.4,30.21,North,360,4.0,9.0,96,0.01,,---,0.22,VWS V14.01,2013-07-04 02:14:00,
2013-07-03 22:19:00,73.6,72.4,30.21,North,360,5.0,9.0,96,0.01,,---,0.22,VWS V14.01,2013-07-04 02:19:00,
2013-07-03 22:24:00,73.5,72.3,30.21,North,360,5.0,9.0,96,0.01,,---,0.22,VWS V14.01,2013-07-04 02:24:00,
2013-07-03 22:29:00,73.5,72.3,30.21,North,360,4.0,9.0,96,0.01,,---,0.22,VWS V14.01,2013-07-04 02:29:00,
2013-07-03 22:35:00,73.5,72.3,30.21,North,360,3.0,9.0,96,0.01,,---,0.22,VWS V14.01,2013-07-04 02:35:00,
2013-07-03 22:40:00,73.5,72.3,30.21,North,360,5.0,9.0,96,0.02,,---,0.23,VWS V14.01,2013-07-04 02:40:00,
2013-07-03 22:45:00,73.5,72.3,30.21,North,360,6.0,10.0,96,0.02,,---,0.23,VWS V14.01,2013-07-04 02:45:00,
2013-07-03 22:50:00,73.5,72.3,30.21,North,360,4.0,10.0,96,0.02,,---,0.23,VWS V14.01,2013-07-04 02:50:00,
2013-07-03 22:55:00,73.4,72.2,30.21,North,360,5.0,10.0,96,0.02,,---,0.23,VWS V14.01,2013-07-04 02:55:00,
2013-07-03 23:00:00,73.4,72.2,30.21,North,360,5.0,11.0,96,0.02,,---,0.23,VWS V14.01,2013-07-04 03:00:00,
2013-07-03 23:05:00,73.4,72.2,30.21,North,360,6.0,11.0,96,0.01,,---,0.23,VWS V14.01,2013-07-04 03:05:00,
2013-07-03 23:10:00,73.3,72.1,30.22,North,360,4.0,11.0,96,0.01,,---,0.23,VWS V14.01,2013-07-04 03:10:00,
2013-07-03 23:15:00,73.3,72.1,30.21,North,360,5.0,11.0,96,0.01,,---,0.23,VWS V14.01,2013-07-04 03:15:00,
2013-07-03 23:20:00,73.1,71.9,30.21,North,360,6.0,11.0,96,0.01,,---,0.23,VWS V14.01,2013-07-04 03:20:00,
2013-07-03 23:25:00,73.2,72.3,30.21,North,360,4.0,11.0,97,0.01,,---,0.23,VWS V14.01,2013-07-04 03:25:00,
2013-07-03 23:30:00,73.1,72.2,30.21,North,360,5.0,11.0,97,0.01,,---,0.23,VWS V14.01,2013-07-04 03:30:00,
2013-07-03 23:36:00,73.0,72.1,30.21,North,360,5.0,11.0,97,0.01,,---,0.23,VWS V14.01,2013-07-04 03:36:00,
2013-07-03 23:41:00,73.0,72.1,30.22,North,360,5.0,11.0,97,0.01,,---,0.23,VWS V14.01,2013-07-04 03:41:00,
2013-07-03 23:46:00,73.0,72.1,30.22,North,360,4.0,11.0,97,0.01,,---,0.23,VWS V14.01,2013-07-04 03:46:00,
2013-07-03 23:51:00,73.0,72.1,30.22,North,360,4.0,11.0,97,0.01,,---,0.23,VWS V14.01,2013-07-04 03:51:00,
2013-07-03 23:56:00,73.0,72.1,30.22,North,360,7.0,11.0,97,0.01,,---,0.23,VWS V14.01,2013-07-04 03:56:00,